Time;durP1;ratioP1;P1;durP2;ratioP2;P2;SDS_P1;SDS_P2;PMS_P1;PMS_P2;Temp;Humidity;BMP_temperature;BMP_pressure;BME280_temperature;BME280_humidity;BME280_pressure;Samples;Min_cycle;Max_cycle;Signal;HPM_P1;HPM_P2
2021/11/26 00:00:57;;;;;;;;;;;;;;;3.85;100.00;99713.84;5094956;28;19938;-77
2021/11/26 00:03:24;;;;;;;;;;;;;;;3.83;100.00;99715.75;5094427;28;19974;-77
2021/11/26 00:05:50;;;;;;;;;;;;;;;3.84;100.00;99701.38;5094620;28;19928;-77
2021/11/26 00:08:16;;;;;;;;;;;;;;;3.83;100.00;99699.63;5094368;28;19953;-77
2021/11/26 00:10:43;;;;;;;;;;;;;;;3.85;100.00;99689.66;5094606;28;19974;-77
2021/11/26 00:13:11;;;;;;;;;;;;;;;3.81;100.00;99696.22;5094512;28;20034;-77
2021/11/26 00:15:40;;;;;;;;;;;;;;;3.78;100.00;99691.06;5094302;28;20578;-77
2021/11/26 00:18:08;;;;;;;;;;;;;;;3.78;100.00;99691.06;5093016;28;20047;-77
2021/11/26 00:20:34;;;;;;;;;;;;;;;3.77;100.00;99691.16;5094167;28;19959;-77
2021/11/26 00:23:01;;;;;;;;;;;;;;;3.76;100.00;99689.47;5094370;28;19924;-77
2021/11/26 00:25:27;;;;;;;;;;;;;;;3.77;100.00;99691.16;5093941;28;20361;-76
2021/11/26 00:27:53;;;;;;;;;;;;;;;3.76;100.00;99687.63;5094274;28;20003;-77
2021/11/26 00:30:22;;;;;;;;;;;;;;;3.77;100.00;99685.78;5075913;28;19932;-76
2021/11/26 00:32:48;;;;;;;;;;;;;;;3.78;100.00;99688.38;5094015;28;20432;-76
2021/11/26 00:35:15;;;;;;;;;;;;;;;3.77;100.00;99680.41;5094065;28;20075;-77
2021/11/26 00:37:41;;;;;;;;;;;;;;;3.76;100.00;99681.41;5093708;28;20435;-76
2021/11/26 00:40:08;;;;;;;;;;;;;;;3.76;100.00;99676.88;5094125;28;19973;-77
2021/11/26 00:42:34;;;;;;;;;;;;;;;3.76;100.00;99687.63;5093727;28;20028;-76
2021/11/26 00:45:00;;;;;;;;;;;;;;;3.74;100.00;99689.56;5093865;28;19966;-76
2021/11/26 00:47:28;;;;;;;;;;;;;;;3.74;100.00;99684.19;5093611;28;19993;-76
2021/11/26 00:49:54;;;;;;;;;;;;;;;3.72;100.00;99675.38;5093894;28;19991;-77
2021/11/26 00:52:21;;;;;;;;;;;;;;;3.75;100.00;99677.00;5093830;28;19955;-76
2021/11/26 00:54:47;;;;;;;;;;;;;;;3.75;100.00;99679.69;5093654;28;19925;-76
2021/11/26 00:57:13;;;;;;;;;;;;;;;3.75;100.00;99674.31;5093065;28;20331;-76
2021/11/26 00:59:40;;;;;;;;;;;;;;;3.74;100.00;99672.59;5093317;28;19992;-76
2021/11/26 01:02:06;;;;;;;;;;;;;;;3.74;100.00;99676.16;5093250;28;20008;-76
2021/11/26 01:04:35;;;;;;;;;;;;;;;3.72;100.00;99674.53;5093603;28;19936;-77
2021/11/26 01:07:01;;;;;;;;;;;;;;;3.74;100.00;99668.09;5093369;28;20063;-76
2021/11/26 01:09:28;;;;;;;;;;;;;;;3.74;100.00;99662.72;5093425;28;19962;-76
2021/11/26 01:11:54;;;;;;;;;;;;;;;3.73;100.00;99666.38;5093360;28;19998;-76
2021/11/26 01:14:22;;;;;;;;;;;;;;;3.72;100.00;99663.78;5093389;28;20370;-76
2021/11/26 01:16:49;;;;;;;;;;;;;;;3.70;100.00;99658.50;5093079;28;20388;-75
2021/11/26 01:19:15;;;;;;;;;;;;;;;3.66;100.00;99654.31;5093250;28;19997;-76
2021/11/26 01:21:43;;;;;;;;;;;;;;;3.66;100.00;99654.31;5093204;28;20427;-76
2021/11/26 01:24:09;;;;;;;;;;;;;;;3.67;100.00;99656.03;5093037;28;19984;-76
2021/11/26 01:26:35;;;;;;;;;;;;;;;3.66;100.00;99651.63;5093059;28;20055;-76
2021/11/26 01:29:01;;;;;;;;;;;;;;;3.65;100.00;99652.63;5092533;28;20025;-76
2021/11/26 01:31:28;;;;;;;;;;;;;;;3.64;100.00;99646.38;5093024;28;19965;-78
2021/11/26 01:33:55;;;;;;;;;;;;;;;3.64;100.00;99640.16;5092967;28;19942;-76
2021/11/26 01:36:21;;;;;;;;;;;;;;;3.64;100.00;99645.53;5092792;28;20032;-75
2021/11/26 01:38:49;;;;;;;;;;;;;;;3.63;100.00;99641.97;5093095;28;19924;-77
2021/11/26 01:41:15;;;;;;;;;;;;;;;3.64;100.00;99635.66;5092751;28;20018;-76
2021/11/26 01:43:42;;;;;;;;;;;;;;;3.62;100.00;99625.97;5092564;28;20061;-78
2021/11/26 01:46:09;;;;;;;;;;;;;;;3.64;100.00;99634.81;5092529;28;20009;-78
2021/11/26 01:48:36;;;;;;;;;;;;;;;3.63;100.00;99633.91;5092890;28;19990;-77
2021/11/26 01:51:03;;;;;;;;;;;;;;;3.64;100.00;99627.59;5092494;28;20282;-77
2021/11/26 01:53:29;;;;;;;;;;;;;;;3.63;100.00;99623.19;5092706;28;20022;-77
2021/11/26 01:55:57;;;;;;;;;;;;;;;3.64;100.00;99630.28;5092688;28;19968;-77
2021/11/26 01:58:23;;;;;;;;;;;;;;;3.62;100.00;99625.97;5092303;28;20383;-77
2021/11/26 02:00:51;;;;;;;;;;;;;;;3.61;100.00;99624.28;5074487;28;20428;-78
2021/11/26 02:03:17;;;;;;;;;;;;;;;3.61;100.00;99625.13;5074189;28;20011;-77
2021/11/26 02:05:43;;;;;;;;;;;;;;;3.63;100.00;99616.97;5092167;28;20364;-78
2021/11/26 02:08:10;;;;;;;;;;;;;;;3.63;100.00;99615.13;5092496;28;20251;-77
2021/11/26 02:10:37;;;;;;;;;;;;;;;3.61;100.00;99613.56;5092364;28;19955;-77
2021/11/26 02:13:05;;;;;;;;;;;;;;;3.63;100.00;99608.91;5092320;28;19971;-77
2021/11/26 02:15:39;;;;;;;;;;;;;;;3.60;100.00;99593.88;5092192;28;19981;-78
2021/11/26 02:18:06;;;;;;;;;;;;;;;3.63;100.00;99604.41;5092276;28;20059;-77
2021/11/26 02:20:34;;;;;;;;;;;;;;;3.60;100.00;99601.09;5091937;28;20399;-76
2021/11/26 02:23:00;;;;;;;;;;;;;;;3.61;100.00;99589.41;5074003;28;19958;-76
2021/11/26 02:25:27;;;;;;;;;;;;;;;3.59;100.00;99588.63;5091756;28;20427;-77
2021/11/26 02:27:55;;;;;;;;;;;;;;;3.58;100.00;99581.53;5092109;28;20023;-77
2021/11/26 02:30:21;;;;;;;;;;;;;;;3.59;100.00;99583.25;5092126;28;19940;-78
2021/11/26 02:32:51;;;;;;;;;;;;;;;3.58;100.00;99581.53;5091806;28;19943;-78
2021/11/26 02:35:18;;;;;;;;;;;;;;;3.58;100.00;99582.41;5091867;28;20382;-78
2021/11/26 02:37:45;;;;;;;;;;;;;;;3.59;100.00;99575.22;5091758;28;19999;-77
2021/11/26 02:40:13;;;;;;;;;;;;;;;3.59;100.00;99567.16;5092708;28;20368;-78
2021/11/26 02:42:40;;;;;;;;;;;;;;;3.59;100.00;99559.97;5091563;28;20059;-77
2021/11/26 02:45:07;;;;;;;;;;;;;;;3.59;100.00;99562.66;5092037;28;19973;-77
2021/11/26 02:47:34;;;;;;;;;;;;;;;3.57;100.00;99561.91;5094102;28;20217;-78
2021/11/26 02:50:03;;;;;;;;;;;;;;;3.59;100.00;99556.44;5095678;28;19972;-78
2021/11/26 02:52:29;;;;;;;;;;;;;;;3.56;100.00;99554.81;5095279;28;20018;-77
2021/11/26 02:54:57;;;;;;;;;;;;;;;3.54;100.00;99546.03;5093590;28;20052;-78
2021/11/26 02:57:23;;;;;;;;;;;;;;;3.55;100.00;99557.63;5092030;28;20053;-78
2021/11/26 02:59:49;;;;;;;;;;;;;;;3.57;100.00;99558.34;5093030;28;20027;-78
2021/11/26 03:02:16;;;;;;;;;;;;;;;3.58;100.00;99560.06;5096035;28;19967;-78
2021/11/26 03:04:42;;;;;;;;;;;;;;;3.55;100.00;99561.16;5094889;28;19985;-78
2021/11/26 03:07:09;;;;;;;;;;;;;;;3.56;100.00;99562.03;5094280;28;19970;-77
2021/11/26 03:09:36;;;;;;;;;;;;;;;3.54;100.00;99547.84;5075455;28;20037;-78
2021/11/26 03:12:04;;;;;;;;;;;;;;;3.53;100.00;99557.72;5091409;28;19987;-78
2021/11/26 03:14:30;;;;;;;;;;;;;;;3.53;100.00;99555.03;5091504;28;20450;-77
2021/11/26 03:16:57;;;;;;;;;;;;;;;3.54;100.00;99545.16;5091269;28;20049;-78
2021/11/26 03:19:23;;;;;;;;;;;;;;;3.50;100.00;99539.13;5091229;28;20019;-76
2021/11/26 03:21:49;;;;;;;;;;;;;;;3.48;100.00;99539.25;5091475;28;20053;-78
2021/11/26 03:24:16;;;;;;;;;;;;;;;3.47;100.00;99532.16;5091218;28;20059;-77
2021/11/26 03:26:42;;;;;;;;;;;;;;;3.49;100.00;99534.75;5091579;28;20026;-77
2021/11/26 03:29:10;;;;;;;;;;;;;;;3.50;100.00;99526.59;5091248;28;20054;-77
2021/11/26 03:31:36;;;;;;;;;;;;;;;3.50;100.00;99525.72;5091401;28;20033;-77
2021/11/26 03:34:03;;;;;;;;;;;;;;;3.45;100.00;99522.53;5091413;28;19942;-77
2021/11/26 03:36:29;;;;;;;;;;;;;;;3.49;100.00;99519.50;5090959;28;20478;-77
2021/11/26 03:38:56;;;;;;;;;;;;;;;3.48;100.00;99517.78;5091276;28;19994;-77
2021/11/26 03:41:22;;;;;;;;;;;;;;;3.49;100.00;99521.34;5091074;28;20052;-77
2021/11/26 03:43:49;;;;;;;;;;;;;;;3.50;100.00;99526.59;5091178;28;20063;-77
2021/11/26 03:46:17;;;;;;;;;;;;;;;3.52;100.00;99521.97;5091050;28;20403;-77
2021/11/26 03:48:43;;;;;;;;;;;;;;;3.51;100.00;99522.97;5091175;28;19928;-77
2021/11/26 03:51:09;;;;;;;;;;;;;;;3.52;100.00;99529.16;5091322;28;19942;-77
2021/11/26 03:53:35;;;;;;;;;;;;;;;3.50;100.00;99526.59;5093526;28;19978;-77
2021/11/26 03:56:02;;;;;;;;;;;;;;;3.50;100.00;99518.56;5094852;28;20406;-77
2021/11/26 03:58:28;;;;;;;;;;;;;;;3.52;100.00;99519.28;5094570;28;20053;-77
2021/11/26 04:00:54;;;;;;;;;;;;;;;3.55;100.00;99514.69;5094894;28;20013;-77
2021/11/26 04:03:22;;;;;;;;;;;;;;;3.54;100.00;99512.97;5094561;28;20357;-77
2021/11/26 04:05:48;;;;;;;;;;;;;;;3.55;100.00;99512.00;5094612;28;19941;-77
2021/11/26 04:08:15;;;;;;;;;;;;;;;3.51;100.00;99512.22;5076484;28;19958;-77
2021/11/26 04:10:41;;;;;;;;;;;;;;;3.50;100.00;99498.88;5094431;28;20025;-77
2021/11/26 04:13:08;;;;;;;;;;;;;;;3.54;100.00;99500.41;5094663;28;20494;-77
2021/11/26 04:15:37;;;;;;;;;;;;;;;3.55;100.00;99496.75;5094257;28;19948;-77
2021/11/26 04:18:04;;;;;;;;;;;;;;;3.58;100.00;99492.97;5094293;28;20132;-77
2021/11/26 04:20:32;;;;;;;;;;;;;;;3.60;100.00;99488.38;5094278;28;19996;-76
2021/11/26 04:22:59;;;;;;;;;;;;;;;3.57;100.00;99486.78;5076179;28;20474;-77
2021/11/26 04:25:25;;;;;;;;;;;;;;;3.57;100.00;99486.78;5094226;28;19977;-76
2021/11/26 04:27:51;;;;;;;;;;;;;;;3.57;100.00;99489.44;5093985;28;20043;-76
2021/11/26 04:30:18;;;;;;;;;;;;;;;3.56;100.00;99487.72;5094245;28;20342;-77
2021/11/26 04:32:46;;;;;;;;;;;;;;;3.55;100.00;99485.16;5094043;28;19981;-77
2021/11/26 04:35:13;;;;;;;;;;;;;;;3.54;100.00;99481.63;5094008;28;20051;-77
2021/11/26 04:37:41;;;;;;;;;;;;;;;3.55;100.00;99480.63;5093892;28;20067;-76
2021/11/26 04:40:09;;;;;;;;;;;;;;;3.54;100.00;99473.59;5093983;28;20394;-76
2021/11/26 04:42:35;;;;;;;;;;;;;;;3.54;100.00;99468.22;5094023;28;19948;-77
2021/11/26 04:45:02;;;;;;;;;;;;;;;3.54;100.00;99478.94;5093641;28;20012;-77
2021/11/26 04:47:28;;;;;;;;;;;;;;;3.54;100.00;99467.34;5093782;28;20445;-77
2021/11/26 04:49:54;;;;;;;;;;;;;;;3.54;100.00;99464.66;5093512;28;19974;-76
2021/11/26 04:52:20;;;;;;;;;;;;;;;3.54;100.00;99467.34;5093784;28;19981;-76
2021/11/26 04:54:48;;;;;;;;;;;;;;;3.57;100.00;99461.75;5093865;28;20381;-77
2021/11/26 04:57:14;;;;;;;;;;;;;;;3.54;100.00;99459.28;5093455;28;20068;-77
2021/11/26 04:59:41;;;;;;;;;;;;;;;3.54;100.00;99459.28;5093605;28;19982;-76
2021/11/26 05:02:07;;;;;;;;;;;;;;;3.51;100.00;99455.88;5093511;28;20485;-77
2021/11/26 05:04:33;;;;;;;;;;;;;;;3.53;100.00;99458.44;5092866;28;20010;-75
2021/11/26 05:07:01;;;;;;;;;;;;;;;3.55;100.00;99461.00;5093227;28;20023;-75
2021/11/26 05:09:28;;;;;;;;;;;;;;;3.55;100.00;99455.66;5093249;28;20021;-76
2021/11/26 05:11:55;;;;;;;;;;;;;;;3.56;100.00;99442.13;5093655;28;19991;-76
2021/11/26 05:14:23;;;;;;;;;;;;;;;3.54;100.00;99443.19;5093151;28;19942;-76
2021/11/26 05:16:50;;;;;;;;;;;;;;;3.54;100.00;99441.38;5093202;28;19928;-76
2021/11/26 05:19:16;;;;;;;;;;;;;;;3.56;100.00;99446.63;5093103;28;19997;-76
2021/11/26 05:21:42;;;;;;;;;;;;;;;3.52;100.00;99436.09;5093440;28;19985;-76
2021/11/26 05:24:09;;;;;;;;;;;;;;;3.54;100.00;99437.81;5093124;28;20064;-76
2021/11/26 05:26:36;;;;;;;;;;;;;;;3.54;100.00;99436.00;5093068;28;20011;-76
2021/11/26 05:29:04;;;;;;;;;;;;;;;3.50;100.00;99432.69;5093145;28;20397;-76
2021/11/26 05:31:31;;;;;;;;;;;;;;;3.49;100.00;99422.91;5092851;28;19935;-76
2021/11/26 05:33:57;;;;;;;;;;;;;;;3.51;100.00;99421.00;5093181;28;19945;-75
2021/11/26 05:36:23;;;;;;;;;;;;;;;3.47;100.00;99414.09;5074488;28;20016;-75
2021/11/26 05:38:50;;;;;;;;;;;;;;;3.47;100.00;99416.78;5092937;28;20053;-76
2021/11/26 05:41:16;;;;;;;;;;;;;;;3.49;100.00;99409.50;5092716;28;20055;-76
2021/11/26 05:43:42;;;;;;;;;;;;;;;3.49;100.00;99414.88;5092794;28;20202;-75
2021/11/26 05:46:10;;;;;;;;;;;;;;;3.47;100.00;99408.75;5092636;28;20075;-76
2021/11/26 05:48:36;;;;;;;;;;;;;;;3.47;100.00;99406.06;5092301;28;20052;-75
2021/11/26 05:51:02;;;;;;;;;;;;;;;3.46;100.00;99407.06;5092588;28;20032;-78
2021/11/26 05:53:28;;;;;;;;;;;;;;;3.47;100.00;99405.22;5092428;28;20039;-79
2021/11/26 05:55:59;;;;;;;;;;;;;;;3.48;100.00;99407.78;5091791;28;19960;-78
2021/11/26 05:58:25;;;;;;;;;;;;;;;3.43;100.00;99399.19;5092522;28;19958;-77
2021/11/26 06:00:52;;;;;;;;;;;;;;;3.46;100.00;99399.00;5092540;28;20032;-77
2021/11/26 06:03:19;;;;;;;;;;;;;;;3.47;100.00;99394.47;5092372;28;20037;-77
2021/11/26 06:05:45;;;;;;;;;;;;;;;3.46;100.00;99400.81;5091778;28;19944;-79
2021/11/26 06:08:12;;;;;;;;;;;;;;;3.47;100.00;99403.38;5091844;28;20023;-78
2021/11/26 06:10:38;;;;;;;;;;;;;;;3.48;100.00;99401.56;5091800;28;20048;-79
2021/11/26 06:13:05;;;;;;;;;;;;;;;3.45;100.00;99405.31;5092174;28;20042;-79
2021/11/26 06:15:32;;;;;;;;;;;;;;;3.45;100.00;99397.28;5073418;28;20064;-78
2021/11/26 06:17:58;;;;;;;;;;;;;;;3.47;100.00;99407.91;5091461;28;20311;-79
2021/11/26 06:20:26;;;;;;;;;;;;;;;3.46;100.00;99411.53;5091832;28;19945;-78
2021/11/26 06:22:52;;;;;;;;;;;;;;;3.46;100.00;99404.38;5092065;28;20053;-78
2021/11/26 06:25:20;;;;;;;;;;;;;;;3.44;100.00;99414.34;5091399;28;20049;-78
2021/11/26 06:27:47;;;;;;;;;;;;;;;3.48;100.00;99407.78;5090612;28;19967;-78
2021/11/26 06:30:14;;;;;;;;;;;;;;;3.46;100.00;99406.19;5091782;28;20044;-77
2021/11/26 06:32:41;;;;;;;;;;;;;;;3.47;100.00;99400.69;5091780;28;20040;-78
2021/11/26 06:35:08;;;;;;;;;;;;;;;3.47;100.00;99398.00;5091472;28;19939;-78
2021/11/26 06:37:36;;;;;;;;;;;;;;;3.47;100.00;99394.47;5091544;28;20003;-78
2021/11/26 06:40:03;;;;;;;;;;;;;;;3.48;100.00;99396.19;5091528;28;19986;-77
2021/11/26 06:42:30;;;;;;;;;;;;;;;3.48;100.00;99399.72;5090978;28;20390;-77
2021/11/26 06:44:56;;;;;;;;;;;;;;;3.47;100.00;99398.00;5091254;28;20008;-76
2021/11/26 06:47:22;;;;;;;;;;;;;;;3.48;100.00;99393.53;5091285;28;20493;-77
2021/11/26 06:49:49;;;;;;;;;;;;;;;3.47;100.00;99389.97;5091709;28;20040;-77
2021/11/26 06:52:15;;;;;;;;;;;;;;;3.47;100.00;99384.59;5091680;28;20440;-77
2021/11/26 06:54:43;;;;;;;;;;;;;;;3.51;100.00;99388.78;5072877;28;20020;-77
2021/11/26 06:57:10;;;;;;;;;;;;;;;3.52;100.00;99384.28;5077414;28;20041;-77
2021/11/26 06:59:36;;;;;;;;;;;;;;;3.53;100.00;99380.63;5090295;28;20444;-77
2021/11/26 07:02:02;;;;;;;;;;;;;;;3.55;100.00;99383.19;5091436;28;20018;-78
2021/11/26 07:04:29;;;;;;;;;;;;;;;3.58;100.00;99383.84;5091224;28;20431;-77
2021/11/26 07:06:55;;;;;;;;;;;;;;;3.58;100.00;99374.91;5090770;28;19948;-76
2021/11/26 07:09:21;;;;;;;;;;;;;;;3.61;100.00;99390.81;5091329;28;19973;-76
2021/11/26 07:11:49;;;;;;;;;;;;;;;3.60;100.00;99381.88;5091110;28;19953;-76
2021/11/26 07:14:15;;;;;;;;;;;;;;;3.60;100.00;99378.34;5073815;28;19932;-76
2021/11/26 07:16:42;;;;;;;;;;;;;;;3.61;100.00;99385.44;5090754;28;20368;-76
2021/11/26 07:19:08;;;;;;;;;;;;;;;3.61;100.00;99385.44;5090392;28;19928;-76
2021/11/26 07:21:34;;;;;;;;;;;;;;;3.61;100.00;99380.06;5090582;28;19966;-76
2021/11/26 07:24:01;;;;;;;;;;;;;;;3.65;100.00;99389.59;5070851;28;20352;-76
2021/11/26 07:26:28;;;;;;;;;;;;;;;3.68;100.00;99384.84;5085439;28;20417;-77
2021/11/26 07:28:55;;;;;;;;;;;;;;;3.72;100.00;99382.81;5092307;28;20266;-77
2021/11/26 07:31:22;;;;;;;;;;;;;;;3.72;100.00;99377.44;5094963;28;20299;-78
2021/11/26 07:33:48;;;;;;;;;;;;;;;3.76;100.00;99380.75;5095121;28;20036;-76
2021/11/26 07:36:14;;;;;;;;;;;;;;;3.80;100.00;99369.66;5094839;28;20262;-76
2021/11/26 07:38:40;;;;;;;;;;;;;;;3.81;100.00;99363.31;5094546;28;20004;-77
2021/11/26 07:41:07;;;;;;;;;;;;;;;3.77;100.00;99364.53;5095025;28;20049;-77
2021/11/26 07:43:33;;;;;;;;;;;;;;;3.77;100.00;99361.84;5084960;28;19979;-76
2021/11/26 07:46:02;;;;;;;;;;;;;;;3.79;100.00;99354.53;5084182;28;20815;-74
2021/11/26 07:48:28;;;;;;;;;;;;;;;3.76;100.00;99351.22;5089098;28;19974;-75
2021/11/26 07:50:55;;;;;;;;;;;;;;;3.74;100.00;99356.72;5094507;28;20354;-76
2021/11/26 07:53:21;;;;;;;;;;;;;;;3.74;100.00;99351.34;5094485;28;20012;-75
2021/11/26 07:55:49;;;;;;;;;;;;;;;3.78;100.00;99350.16;5094178;28;20011;-75
2021/11/26 07:58:16;;;;;;;;;;;;;;;3.81;100.00;99349.91;5094766;28;19924;-77
2021/11/26 08:00:42;;;;;;;;;;;;;;;3.83;100.00;99344.41;5093917;28;20369;-75
2021/11/26 08:03:09;;;;;;;;;;;;;;;3.84;100.00;99344.28;5094076;28;20022;-77
2021/11/26 08:05:36;;;;;;;;;;;;;;;3.85;100.00;99346.00;5093389;28;20390;-77
2021/11/26 08:08:08;;;;;;;;;;;;;;;3.81;100.00;99338.31;5093704;28;20010;-77
2021/11/26 08:10:35;;;;;;;;;;;;;;;3.86;100.00;99344.19;5093051;28;19931;-77
2021/11/26 08:13:01;;;;;;;;;;;;;;;3.89;100.00;99349.34;5092842;28;20301;-77
2021/11/26 08:15:28;;;;;;;;;;;;;;;3.90;100.00;99351.06;5075754;28;19959;-77
2021/11/26 08:17:54;;;;;;;;;;;;;;;3.90;100.00;99350.19;5092973;28;19931;-77
2021/11/26 08:20:22;;;;;;;;;;;;;;;3.94;100.00;99344.47;5067055;28;20341;-77
2021/11/26 08:22:49;;;;;;;;;;;;;;;3.88;100.00;99339.56;5091564;28;20052;-77
2021/11/26 08:25:15;;;;;;;;;;;;;;;3.95;100.00;99337.28;5090295;28;20011;-78
2021/11/26 08:27:42;;;;;;;;;;;;;;;3.91;100.00;99338.47;5093355;28;19971;-76
2021/11/26 08:30:09;;;;;;;;;;;;;;;3.93;100.00;99333.81;5093384;28;20047;-77
2021/11/26 08:32:36;;;;;;;;;;;;;;;3.88;100.00;99330.66;5088281;28;19979;-78
2021/11/26 08:35:02;;;;;;;;;;;;;;;3.91;100.00;99325.06;5087303;28;20022;-77
2021/11/26 08:37:30;;;;;;;;;;;;;;;3.78;100.00;99325.13;5091555;28;20011;-76
2021/11/26 08:39:56;;;;;;;;;;;;;;;3.74;100.00;99323.63;5092367;28;19965;-76
2021/11/26 08:42:22;;;;;;;;;;;;;;;3.76;100.00;99327.91;5093515;28;19924;-76
2021/11/26 08:44:49;;;;;;;;;;;;;;;3.74;100.00;99312.91;5092859;28;20376;-76
2021/11/26 08:47:15;;;;;;;;;;;;;;;3.79;100.00;99324.16;5093459;28;20031;-76
2021/11/26 08:49:41;;;;;;;;;;;;;;;3.79;100.00;99316.94;5092635;28;19955;-77
2021/11/26 08:52:08;;;;;;;;;;;;;;;3.90;100.00;99317.97;5093476;28;19966;-77
2021/11/26 08:54:36;;;;;;;;;;;;;;;4.03;100.00;99308.00;5092317;28;19924;-77
2021/11/26 08:57:02;;;;;;;;;;;;;;;4.14;100.00;99308.03;5081338;28;20009;-77
2021/11/26 08:59:28;;;;;;;;;;;;;;;4.21;100.00;99312.94;5092554;28;20010;-77
2021/11/26 09:01:54;;;;;;;;;;;;;;;4.21;100.00;99304.88;5092787;28;20389;-77
2021/11/26 09:04:21;;;;;;;;;;;;;;;4.13;100.00;99300.06;5093083;28;20018;-76
2021/11/26 09:06:48;;;;;;;;;;;;;;;4.17;100.00;99298.91;5093136;28;20026;-77
2021/11/26 09:09:15;;;;;;;;;;;;;;;4.19;100.00;99303.16;5092482;28;19924;-76
2021/11/26 09:11:43;;;;;;;;;;;;;;;4.19;100.00;99296.94;5093200;28;19967;-77
2021/11/26 09:14:09;;;;;;;;;;;;;;;4.30;100.00;99301.47;5093044;28;20411;-77
2021/11/26 09:16:35;;;;;;;;;;;;;;;4.31;100.00;99301.34;5092212;28;20035;-78
2021/11/26 09:19:02;;;;;;;;;;;;;;;4.35;100.00;99291.22;5092912;28;19954;-77
2021/11/26 09:21:28;;;;;;;;;;;;;;;4.38;100.00;99290.97;5092406;28;20456;-77
2021/11/26 09:23:55;;;;;;;;;;;;;;;4.46;100.00;99291.25;5092827;28;20014;-75
2021/11/26 09:26:21;;;;;;;;;;;;;;;4.48;100.00;99289.28;5092302;28;19961;-77
2021/11/26 09:28:49;;;;;;;;;;;;;;;4.48;100.00;99291.97;5074517;28;19928;-78
2021/11/26 09:31:16;;;;;;;;;;;;;;;4.54;100.00;99285.25;5093551;28;19931;-77
2021/11/26 09:33:43;;;;;;;;;;;;;;;4.62;100.00;99280.16;5091237;28;20396;-77
2021/11/26 09:36:10;;;;;;;;;;;;;;;4.74;100.00;99280.13;5073895;28;20002;-77
2021/11/26 09:38:38;;;;;;;;;;;;;;;4.74;100.00;99264.84;5092117;28;20366;-77
2021/11/26 09:41:05;;;;;;;;;;;;;;;4.86;100.00;99263.00;5092453;28;19932;-77
2021/11/26 09:43:31;;;;;;;;;;;;;;;4.84;100.00;99254.22;5086700;28;20014;-77
2021/11/26 09:46:02;;;;;;;;;;;;;;;4.95;100.00;99250.66;5091854;28;19928;-77
2021/11/26 09:48:28;;;;;;;;;;;;;;;4.89;100.00;99243.97;5091724;28;20025;-77
2021/11/26 09:50:55;;;;;;;;;;;;;;;4.98;100.00;99239.66;5092086;28;19963;-78
2021/11/26 09:53:23;;;;;;;;;;;;;;;5.05;100.00;99240.00;5092125;28;19986;-77
2021/11/26 09:55:51;;;;;;;;;;;;;;;5.20;100.00;99228.00;5090551;28;19997;-78
2021/11/26 09:58:17;;;;;;;;;;;;;;;5.19;100.00;99226.28;5090286;28;19951;-78
2021/11/26 10:00:45;;;;;;;;;;;;;;;5.18;100.00;99220.06;5091815;28;20091;-77
2021/11/26 10:03:12;;;;;;;;;;;;;;;5.16;100.00;99223.84;5091175;28;19941;-77
2021/11/26 10:05:39;;;;;;;;;;;;;;;5.13;100.00;99216.00;5090326;28;19967;-78
2021/11/26 10:08:05;;;;;;;;;;;;;;;5.20;100.00;99223.44;5091802;28;20007;-78
2021/11/26 10:10:33;;;;;;;;;;;;;;;5.01;100.00;99220.56;5090338;28;20441;-77
2021/11/26 10:13:01;;;;;;;;;;;;;;;5.01;100.00;99212.50;5092156;28;19945;-78
2021/11/26 10:15:32;;;;;;;;;;;;;;;5.01;100.00;99215.19;5091170;28;20003;-77
2021/11/26 10:18:05;;;;;;;;;;;;;;;4.97;100.00;99200.28;5091862;28;19959;-77
2021/11/26 10:20:33;;;;;;;;;;;;;;;5.00;100.00;99208.97;5091603;28;20018;-77
2021/11/26 10:22:59;;;;;;;;;;;;;;;5.05;100.00;99203.22;5091370;28;20356;-78
2021/11/26 10:25:26;;;;;;;;;;;;;;;5.13;100.00;99199.88;5091038;28;20057;-77
2021/11/26 10:27:56;;;;;;;;;;;;;;;5.06;100.00;99193.31;5091512;28;20472;-78
2021/11/26 10:30:24;;;;;;;;;;;;;;;5.07;100.00;99193.16;5091352;28;19949;-77
2021/11/26 10:32:58;;;;;;;;;;;;;;;5.07;100.00;99184.25;5091816;28;19967;-77
2021/11/26 10:35:26;;;;;;;;;;;;;;;5.16;100.00;99175.41;5089302;28;20018;-77
2021/11/26 10:38:02;;;;;;;;;;;;;;;5.21;100.00;99170.47;5091461;28;19985;-77
2021/11/26 10:40:32;;;;;;;;;;;;;;;5.17;100.00;99169.91;5091133;28;20445;-76
2021/11/26 10:42:58;;;;;;;;;;;;;;;5.29;100.00;99164.47;5091279;28;19935;-78
2021/11/26 10:45:35;;;;;;;;;;;;;;;5.30;100.00;99160.81;5090055;28;19978;-77
2021/11/26 10:50:58;;;;;;;;;;;;;;;5.00;100.00;99162.41;5067671;28;19954;-77
2021/11/26 10:59:02;;;;;;;;;;;;;;;4.99;100.00;99149.91;5088083;28;20123;-77
2021/11/26 11:01:29;;;;;;;;;;;;;;;5.06;100.00;99145.72;5090986;28;19954;-77
2021/11/26 11:03:55;;;;;;;;;;;;;;;5.03;100.00;99143.31;5094617;28;19942;-77
2021/11/26 11:06:23;;;;;;;;;;;;;;;5.02;100.00;99141.59;5095008;28;20009;-77
2021/11/26 11:09:02;;;;;;;;;;;;;;;5.12;100.00;99139.84;5094480;28;20378;-77
2021/11/26 11:11:28;;;;;;;;;;;;;;;5.35;100.00;99139.75;5094748;28;20045;-77
2021/11/26 11:13:55;;;;;;;;;;;;;;;5.34;100.00;99133.53;5095336;28;20006;-77
2021/11/26 11:16:21;;;;;;;;;;;;;;;5.37;100.00;99132.38;5077075;28;19924;-77
2021/11/26 11:18:47;;;;;;;;;;;;;;;5.30;100.00;99120.44;5076452;28;20053;-77
2021/11/26 11:21:14;;;;;;;;;;;;;;;5.27;100.00;99118.88;5095173;28;20023;-77
2021/11/26 11:23:40;;;;;;;;;;;;;;;5.30;100.00;99115.06;5094563;28;19976;-77
2021/11/26 11:26:08;;;;;;;;;;;;;;;5.37;100.00;99110.84;5094882;28;20053;-77
2021/11/26 11:28:35;;;;;;;;;;;;;;;5.17;100.00;99107.16;5094179;28;19991;-77
2021/11/26 11:31:01;;;;;;;;;;;;;;;5.07;100.00;99101.72;5094877;28;20042;-78
2021/11/26 11:33:28;;;;;;;;;;;;;;;4.97;100.00;99098.97;5093934;28;19981;-77
2021/11/26 11:35:59;;;;;;;;;;;;;;;4.97;100.00;99104.34;5094471;28;20350;-76
2021/11/26 11:38:25;;;;;;;;;;;;;;;5.04;100.00;99091.22;5094890;28;20001;-76
2021/11/26 11:40:58;;;;;;;;;;;;;;;5.27;100.00;99093.81;5094339;28;20014;-77
2021/11/26 11:43:26;;;;;;;;;;;;;;;5.33;100.00;99079.81;5094522;28;20005;-77
2021/11/26 11:45:57;;;;;;;;;;;;;;;5.41;100.00;99084.53;5091975;28;20003;-77
2021/11/26 11:48:25;;;;;;;;;;;;;;;5.32;100.00;99081.66;5091634;28;20521;-75
2021/11/26 11:50:51;;;;;;;;;;;;;;;5.48;100.00;99072.28;5094444;28;19934;-77
2021/11/26 11:53:22;;;;;;;;;;;;;;;5.39;100.00;99076.59;5092158;28;20064;-76
2021/11/26 11:55:49;;;;;;;;;;;;;;;5.35;100.00;99070.63;5093670;28;20406;-77
2021/11/26 11:58:16;;;;;;;;;;;;;;;5.45;100.00;99051.00;5093878;28;20426;-77
2021/11/26 12:00:45;;;;;;;;;;;;;;;5.44;100.00;99051.97;5093976;28;20061;-77
2021/11/26 12:03:13;;;;;;;;;;;;;;;5.40;100.00;99047.84;5092899;28;19993;-76
2021/11/26 12:05:40;;;;;;;;;;;;;;;5.67;100.00;99047.31;5088408;28;20006;-77
2021/11/26 12:08:08;;;;;;;;;;;;;;;5.92;100.00;99031.66;5093112;28;20056;-76
2021/11/26 12:10:44;;;;;;;;;;;;;;;6.22;100.00;99020.00;5093404;28;19985;-75
2021/11/26 12:13:18;;;;;;;;;;;;;;;6.54;100.00;99014.38;5093319;28;20401;-77
2021/11/26 12:15:46;;;;;;;;;;;;;;;6.80;100.00;99005.75;5071675;28;20380;-77
2021/11/26 12:18:12;;;;;;;;;;;;;;;7.26;100.00;99005.13;5093911;28;20019;-76
2021/11/26 12:20:40;;;;;;;;;;;;;;;7.56;100.00;98995.94;5093832;28;19927;-76
2021/11/26 12:23:14;;;;;;;;;;;;;;;7.59;100.00;98990.25;5092972;28;21635;-77
2021/11/26 12:25:48;;;;;;;;;;;;;;;7.29;100.00;98983.25;5089191;28;20516;-77
2021/11/26 12:28:19;;;;;;;;;;;;;;;7.16;100.00;98973.63;5093777;28;19980;-76
2021/11/26 12:30:58;;;;;;;;;;;;;;;6.99;100.00;98974.38;5093932;28;20313;-76
2021/11/26 12:33:25;;;;;;;;;;;;;;;7.17;100.00;98972.59;5093544;28;19988;-76
2021/11/26 12:35:55;;;;;;;;;;;;;;;7.48;100.00;98972.38;5094103;28;20457;-76
2021/11/26 12:38:22;;;;;;;;;;;;;;;7.68;100.00;98956.97;5093804;28;20139;-77
2021/11/26 12:40:48;;;;;;;;;;;;;;;7.29;100.00;98958.94;5094011;28;19928;-77
2021/11/26 12:43:14;;;;;;;;;;;;;;;7.23;100.00;98964.91;5093835;28;19940;-77
2021/11/26 12:45:41;;;;;;;;;;;;;;;6.89;100.00;98960.88;5093346;28;20012;-76
2021/11/26 12:48:10;;;;;;;;;;;;;;;6.74;100.00;98949.69;5094020;28;20197;-77
2021/11/26 12:53:22;;;;;;;;;;;;;;;6.60;100.00;98958.19;5093784;28;20139;-77
2021/11/26 12:55:52;;;;;;;;;;;;;;;6.63;100.00;98948.00;5092908;28;19950;-77
2021/11/26 12:58:18;;;;;;;;;;;;;;;6.17;100.00;98949.53;5093620;28;19958;-77